sensor_id;sensor_type;location;lat;lon;timestamp;pressure;altitude;pressure_sealevel;temperature;humidity
23339;BME280;11841;49.368;20.962;2023-07-31T00:02:13;95453.00;;;18.27;100.00
23339;BME280;11841;49.368;20.962;2023-07-31T00:04:59;95447.66;;;18.27;100.00
23339;BME280;11841;49.368;20.962;2023-07-31T00:07:44;95451.38;;;18.26;100.00
23339;BME280;11841;49.368;20.962;2023-07-31T00:10:29;95442.81;;;18.24;100.00
23339;BME280;11841;49.368;20.962;2023-07-31T00:13:15;95441.19;;;18.23;100.00
23339;BME280;11841;49.368;20.962;2023-07-31T00:16:00;95446.03;;;18.21;100.00
23339;BME280;11841;49.368;20.962;2023-07-31T00:18:45;95440.94;;;18.20;100.00
23339;BME280;11841;49.368;20.962;2023-07-31T00:21:31;95436.38;;;18.20;100.00
23339;BME280;11841;49.368;20.962;2023-07-31T00:24:16;95442.56;;;18.21;100.00
23339;BME280;11841;49.368;20.962;2023-07-31T00:27:02;95439.34;;;18.19;100.00
23339;BME280;11841;49.368;20.962;2023-07-31T00:29:47;95428.88;;;18.17;100.00
23339;BME280;11841;49.368;20.962;2023-07-31T00:32:32;95431.56;;;18.17;100.00
23339;BME280;11841;49.368;20.962;2023-07-31T00:35:17;95444.69;;;18.19;100.00
23339;BME280;11841;49.368;20.962;2023-07-31T00:38:03;95441.22;;;18.18;100.00
23339;BME280;11841;49.368;20.962;2023-07-31T00:40:48;95438.78;;;18.17;100.00
23339;BME280;11841;49.368;20.962;2023-07-31T00:43:34;95436.38;;;18.15;100.00
23339;BME280;11841;49.368;20.962;2023-07-31T00:46:20;95440.66;;;18.16;99.96
23339;BME280;11841;49.368;20.962;2023-07-31T00:49:06;95440.66;;;18.16;99.75
23339;BME280;11841;49.368;20.962;2023-07-31T00:51:52;95439.06;;;18.15;99.70
23339;BME280;11841;49.368;20.962;2023-07-31T00:54:37;95439.34;;;18.14;99.65
23339;BME280;11841;49.368;20.962;2023-07-31T00:57:23;95438.00;;;18.11;99.69
23339;BME280;11841;49.368;20.962;2023-07-31T01:00:09;95430.75;;;18.06;99.96
23339;BME280;11841;49.368;20.962;2023-07-31T01:02:54;95433.72;;;18.05;99.98
23339;BME280;11841;49.368;20.962;2023-07-31T01:05:52;95436.66;;;18.03;99.92
23339;BME280;11841;49.368;20.962;2023-07-31T01:08:44;95442.81;;;17.89;100.00
23339;BME280;11841;49.368;20.962;2023-07-31T01:11:34;95442.00;;;17.83;100.00
23339;BME280;11841;49.368;20.962;2023-07-31T01:14:20;95438.00;;;17.86;100.00
23339;BME280;11841;49.368;20.962;2023-07-31T01:17:05;95439.38;;;17.88;100.00
23339;BME280;11841;49.368;20.962;2023-07-31T01:19:51;95448.19;;;17.84;100.00
23339;BME280;11841;49.368;20.962;2023-07-31T01:29:20;95454.63;;;17.68;100.00
23339;BME280;11841;49.368;20.962;2023-07-31T01:32:09;95450.84;;;17.59;100.00
23339;BME280;11841;49.368;20.962;2023-07-31T01:34:57;95453.00;;;17.57;100.00
23339;BME280;11841;49.368;20.962;2023-07-31T01:37:45;95450.03;;;17.53;100.00
23339;BME280;11841;49.368;20.962;2023-07-31T01:40:30;95454.06;;;17.46;100.00
23339;BME280;11841;49.368;20.962;2023-07-31T01:43:16;95451.84;;;17.38;100.00
23339;BME280;11841;49.368;20.962;2023-07-31T01:46:01;95451.84;;;17.38;100.00
23339;BME280;11841;49.368;20.962;2023-07-31T01:48:46;95447.63;;;17.47;100.00
23339;BME280;11841;49.368;20.962;2023-07-31T01:51:32;95444.69;;;17.53;100.00
23339;BME280;11841;49.368;20.962;2023-07-31T01:54:20;95446.03;;;17.56;100.00
23339;BME280;11841;49.368;20.962;2023-07-31T01:57:06;95442.53;;;17.50;100.00
23339;BME280;11841;49.368;20.962;2023-07-31T01:59:52;95444.69;;;17.53;100.00
23339;BME280;11841;49.368;20.962;2023-07-31T02:02:38;95437.44;;;17.59;100.00
23339;BME280;11841;49.368;20.962;2023-07-31T02:05:23;95448.19;;;17.64;100.00
23339;BME280;11841;49.368;20.962;2023-07-31T02:08:09;95445.47;;;17.49;100.00
23339;BME280;11841;49.368;20.962;2023-07-31T02:10:54;95444.66;;;17.48;100.00
23339;BME280;11841;49.368;20.962;2023-07-31T02:13:40;95444.66;;;17.48;100.00
23339;BME280;11841;49.368;20.962;2023-07-31T02:16:25;95444.13;;;17.51;100.00
23339;BME280;11841;49.368;20.962;2023-07-31T02:19:10;95455.94;;;17.55;100.00
23339;BME280;11841;49.368;20.962;2023-07-31T02:21:56;95454.63;;;17.58;100.00
23339;BME280;11841;49.368;20.962;2023-07-31T02:24:41;95452.47;;;17.60;100.00
23339;BME280;11841;49.368;20.962;2023-07-31T02:27:26;95456.50;;;17.62;100.00
23339;BME280;11841;49.368;20.962;2023-07-31T02:30:12;95461.03;;;17.62;100.00
23339;BME280;11841;49.368;20.962;2023-07-31T02:32:58;95464.53;;;17.62;100.00
23339;BME280;11841;49.368;20.962;2023-07-31T02:35:43;95470.16;;;17.61;100.00
23339;BME280;11841;49.368;20.962;2023-07-31T02:38:28;95467.75;;;17.59;100.00
23339;BME280;11841;49.368;20.962;2023-07-31T02:41:14;95459.44;;;17.51;100.00
23339;BME280;11841;49.368;20.962;2023-07-31T02:43:59;95465.84;;;17.50;100.00
23339;BME280;11841;49.368;20.962;2023-07-31T02:46:45;95463.72;;;17.52;100.00
23339;BME280;11841;49.368;20.962;2023-07-31T02:49:30;95461.84;;;17.52;100.00
23339;BME280;11841;49.368;20.962;2023-07-31T02:52:16;95459.16;;;17.52;100.00
23339;BME280;11841;49.368;20.962;2023-07-31T02:55:01;95460.47;;;17.50;100.00
23339;BME280;11841;49.368;20.962;2023-07-31T02:57:47;95478.66;;;17.43;100.00
23339;BME280;11841;49.368;20.962;2023-07-31T03:00:32;95467.41;;;17.41;100.00
23339;BME280;11841;49.368;20.962;2023-07-31T03:03:18;95464.72;;;17.31;100.00
23339;BME280;11841;49.368;20.962;2023-07-31T03:06:03;95463.63;;;17.32;100.00
23339;BME280;11841;49.368;20.962;2023-07-31T03:08:48;95463.34;;;17.23;100.00
23339;BME280;11841;49.368;20.962;2023-07-31T03:11:34;95466.81;;;17.19;100.00
23339;BME280;11841;49.368;20.962;2023-07-31T03:14:19;95463.34;;;17.23;100.00
23339;BME280;11841;49.368;20.962;2023-07-31T03:17:04;95458.25;;;17.22;100.00
23339;BME280;11841;49.368;20.962;2023-07-31T03:19:50;95456.63;;;17.26;100.00
23339;BME280;11841;49.368;20.962;2023-07-31T03:22:35;95467.03;;;17.12;100.00
23339;BME280;11841;49.368;20.962;2023-07-31T03:25:21;95466.72;;;16.99;100.00
23339;BME280;11841;49.368;20.962;2023-07-31T03:28:06;95458.69;;;16.93;100.00
23339;BME280;11841;49.368;20.962;2023-07-31T03:30:52;95464.59;;;17.01;100.00
23339;BME280;11841;49.368;20.962;2023-07-31T03:33:37;95463.84;;;17.05;100.00
23339;BME280;11841;49.368;20.962;2023-07-31T03:36:22;95460.34;;;17.05;100.00
23339;BME280;11841;49.368;20.962;2023-07-31T03:39:08;95464.63;;;17.11;100.00
23339;BME280;11841;49.368;20.962;2023-07-31T03:41:53;95460.06;;;17.06;100.00
23339;BME280;11841;49.368;20.962;2023-07-31T03:44:38;95460.88;;;17.02;100.00
23339;BME280;11841;49.368;20.962;2023-07-31T03:47:24;95469.97;;;17.06;100.00
23339;BME280;11841;49.368;20.962;2023-07-31T03:50:09;95471.34;;;17.08;100.00
23339;BME280;11841;49.368;20.962;2023-07-31T03:52:55;95463.03;;;17.10;100.00
23339;BME280;11841;49.368;20.962;2023-07-31T03:55:40;95468.69;;;17.13;100.00
23339;BME280;11841;49.368;20.962;2023-07-31T03:58:25;95464.13;;;17.14;100.00
23339;BME280;11841;49.368;20.962;2023-07-31T04:01:11;95469.50;;;17.14;100.00
23339;BME280;11841;49.368;20.962;2023-07-31T04:03:56;95471.09;;;17.15;100.00
23339;BME280;11841;49.368;20.962;2023-07-31T04:06:42;95467.31;;;17.16;100.00
23339;BME280;11841;49.368;20.962;2023-07-31T04:09:27;95469.47;;;17.04;100.00
23339;BME280;11841;49.368;20.962;2023-07-31T04:12:13;95472.03;;;16.83;100.00
23339;BME280;11841;49.368;20.962;2023-07-31T04:14:58;95467.19;;;16.75;100.00
23339;BME280;11841;49.368;20.962;2023-07-31T04:17:43;95468.28;;;16.79;100.00
23339;BME280;11841;49.368;20.962;2023-07-31T04:20:29;95466.66;;;16.78;100.00
23339;BME280;11841;49.368;20.962;2023-07-31T04:23:14;95466.41;;;16.85;100.00
23339;BME280;11841;49.368;20.962;2023-07-31T04:26:00;95482.22;;;16.81;100.00
23339;BME280;11841;49.368;20.962;2023-07-31T04:28:45;95474.38;;;16.75;100.00
23339;BME280;11841;49.368;20.962;2023-07-31T04:31:30;95492.50;;;16.58;100.00
23339;BME280;11841;49.368;20.962;2023-07-31T04:34:16;95485.53;;;16.57;100.00
23339;BME280;11841;49.368;20.962;2023-07-31T04:37:01;95487.16;;;16.58;100.00
23339;BME280;11841;49.368;20.962;2023-07-31T04:39:47;95481.94;;;16.41;100.00
23339;BME280;11841;49.368;20.962;2023-07-31T04:42:32;95491.66;;;16.47;100.00
23339;BME280;11841;49.368;20.962;2023-07-31T04:45:18;95494.41;;;16.57;100.00
23339;BME280;11841;49.368;20.962;2023-07-31T04:48:03;95498.72;;;16.68;100.00
23339;BME280;11841;49.368;20.962;2023-07-31T04:50:48;95505.44;;;16.71;100.00
23339;BME280;11841;49.368;20.962;2023-07-31T04:53:34;95503.03;;;16.69;100.00
23339;BME280;11841;49.368;20.962;2023-07-31T04:56:19;95504.63;;;16.70;100.00
23339;BME280;11841;49.368;20.962;2023-07-31T04:59:04;95499.00;;;16.72;100.00
23339;BME280;11841;49.368;20.962;2023-07-31T05:01:49;95499.31;;;16.75;100.00
23339;BME280;11841;49.368;20.962;2023-07-31T05:04:35;95495.84;;;16.80;100.00
23339;BME280;11841;49.368;20.962;2023-07-31T05:07:20;95503.09;;;16.84;100.00
23339;BME280;11841;49.368;20.962;2023-07-31T05:10:06;95509.47;;;16.78;100.00
23339;BME280;11841;49.368;20.962;2023-07-31T05:12:51;95504.88;;;16.69;100.00
23339;BME280;11841;49.368;20.962;2023-07-31T05:15:36;95502.47;;;16.67;100.00
23339;BME280;11841;49.368;20.962;2023-07-31T05:18:22;95503.06;;;16.74;100.00
23339;BME280;11841;49.368;20.962;2023-07-31T05:21:07;95504.63;;;16.70;100.00
23339;BME280;11841;49.368;20.962;2023-07-31T05:23:53;95501.94;;;16.70;100.00
23339;BME280;11841;49.368;20.962;2023-07-31T05:26:38;95507.78;;;16.57;100.00
23339;BME280;11841;49.368;20.962;2023-07-31T05:29:24;95508.09;;;16.66;100.00
23339;BME280;11841;49.368;20.962;2023-07-31T05:32:09;95502.53;;;16.77;100.00
23339;BME280;11841;49.368;20.962;2023-07-31T05:34:54;95503.88;;;16.85;100.00
23339;BME280;11841;49.368;20.962;2023-07-31T05:37:40;95503.69;;;16.92;100.00
23339;BME280;11841;49.368;20.962;2023-07-31T05:40:25;95502.66;;;17.03;100.00
23339;BME280;11841;49.368;20.962;2023-07-31T05:43:10;95512.34;;;17.14;100.00
23339;BME280;11841;49.368;20.962;2023-07-31T05:45:56;95509.38;;;17.10;100.00
23339;BME280;11841;49.368;20.962;2023-07-31T05:48:41;95509.13;;;17.17;100.00
23339;BME280;11841;49.368;20.962;2023-07-31T05:51:27;95514.25;;;17.23;100.00
23339;BME280;11841;49.368;20.962;2023-07-31T05:54:13;95508.38;;;17.31;100.00
23339;BME280;11841;49.368;20.962;2023-07-31T05:56:58;95504.69;;;17.42;100.00
23339;BME280;11841;49.368;20.962;2023-07-31T05:59:44;95509.53;;;17.50;100.00
23339;BME280;11841;49.368;20.962;2023-07-31T06:02:29;95507.97;;;17.59;100.00
23339;BME280;11841;49.368;20.962;2023-07-31T06:05:18;95500.72;;;17.70;100.00
23339;BME280;11841;49.368;20.962;2023-07-31T06:08:03;95502.38;;;17.81;100.00
23339;BME280;11841;49.368;20.962;2023-07-31T06:10:49;95502.09;;;17.92;100.00
23339;BME280;11841;49.368;20.962;2023-07-31T06:13:35;95505.88;;;18.06;100.00
23339;BME280;11841;49.368;20.962;2023-07-31T06:16:20;95501.31;;;18.17;100.00
23339;BME280;11841;49.368;20.962;2023-07-31T06:19:06;95504.00;;;18.27;100.00
23339;BME280;11841;49.368;20.962;2023-07-31T06:21:52;95504.00;;;18.42;100.00
23339;BME280;11841;49.368;20.962;2023-07-31T06:24:37;95508.00;;;18.55;98.57
23339;BME280;11841;49.368;20.962;2023-07-31T06:27:22;95504.53;;;18.64;97.20
23339;BME280;11841;49.368;20.962;2023-07-31T06:30:08;95512.28;;;18.71;98.00
23339;BME280;11841;49.368;20.962;2023-07-31T06:32:53;95515.78;;;18.76;96.05
23339;BME280;11841;49.368;20.962;2023-07-31T06:35:38;95519.50;;;18.85;94.84
23339;BME280;11841;49.368;20.962;2023-07-31T06:38:25;95511.41;;;18.90;94.87
23339;BME280;11841;49.368;20.962;2023-07-31T06:41:10;95517.31;;;18.92;94.91
23339;BME280;11841;49.368;20.962;2023-07-31T06:43:56;95523.50;;;18.98;93.73
23339;BME280;11841;49.368;20.962;2023-07-31T06:46:43;95499.84;;;19.00;93.74
23339;BME280;11841;49.368;20.962;2023-07-31T06:49:28;95496.91;;;19.01;93.41
23339;BME280;11841;49.368;20.962;2023-07-31T07:03:46;95517.63;;;19.65;86.96
23339;BME280;11841;49.368;20.962;2023-07-31T07:06:32;95510.59;;;19.64;87.14
23339;BME280;11841;49.368;20.962;2023-07-31T07:09:17;95506.84;;;19.65;87.98
23339;BME280;11841;49.368;20.962;2023-07-31T07:12:03;95504.66;;;19.67;88.78
23339;BME280;11841;49.368;20.962;2023-07-31T07:14:48;95497.13;;;19.69;89.60
23339;BME280;11841;49.368;20.962;2023-07-31T07:17:34;95504.38;;;19.73;89.63
23339;BME280;11841;49.368;20.962;2023-07-31T07:20:19;95497.13;;;19.69;89.10
23339;BME280;11841;49.368;20.962;2023-07-31T07:23:05;95505.47;;;19.67;87.32
23339;BME280;11841;49.368;20.962;2023-07-31T07:25:50;95494.97;;;19.71;85.48
23339;BME280;11841;49.368;20.962;2023-07-31T07:28:36;95498.22;;;19.68;83.55
23339;BME280;11841;49.368;20.962;2023-07-31T07:31:22;95495.78;;;19.71;83.99
23339;BME280;11841;49.368;20.962;2023-07-31T07:34:07;95485.28;;;19.75;82.59
23339;BME280;11841;49.368;20.962;2023-07-31T07:36:53;95498.44;;;19.76;82.68
23339;BME280;11841;49.368;20.962;2023-07-31T07:39:38;95490.34;;;19.81;83.34
23339;BME280;11841;49.368;20.962;2023-07-31T07:42:24;95490.59;;;19.85;82.12
23339;BME280;11841;49.368;20.962;2023-07-31T07:45:09;95483.84;;;19.82;80.29
23339;BME280;11841;49.368;20.962;2023-07-31T07:47:54;95491.16;;;19.82;80.92
23339;BME280;11841;49.368;20.962;2023-07-31T07:50:40;95490.34;;;19.81;79.73
23339;BME280;11841;49.368;20.962;2023-07-31T07:53:26;95491.16;;;19.82;80.77
23339;BME280;11841;49.368;20.962;2023-07-31T07:56:11;95489.44;;;19.91;80.20
23339;BME280;11841;49.368;20.962;2023-07-31T07:58:57;95489.94;;;19.98;81.92
23339;BME280;11841;49.368;20.962;2023-07-31T08:01:42;95485.06;;;20.05;81.79
23339;BME280;11841;49.368;20.962;2023-07-31T08:04:27;95486.09;;;20.09;80.44
23339;BME280;11841;49.368;20.962;2023-07-31T08:07:13;95482.31;;;20.10;80.74
23339;BME280;11841;49.368;20.962;2023-07-31T08:09:58;95483.38;;;20.14;80.32
23339;BME280;11841;49.368;20.962;2023-07-31T08:12:44;95487.94;;;20.18;80.96
23339;BME280;11841;49.368;20.962;2023-07-31T08:15:29;95492.47;;;20.23;80.96
23339;BME280;11841;49.368;20.962;2023-07-31T08:18:14;95491.34;;;20.29;82.67
23339;BME280;11841;49.368;20.962;2023-07-31T08:21:04;95498.84;;;20.32;80.39
23339;BME280;11841;49.368;20.962;2023-07-31T08:23:50;95500.97;;;20.35;80.14
23339;BME280;11841;49.368;20.962;2023-07-31T08:26:35;95495.84;;;20.38;80.24
23339;BME280;11841;49.368;20.962;2023-07-31T08:29:20;95491.44;;;20.48;80.66
23339;BME280;11841;49.368;20.962;2023-07-31T08:32:06;95496.56;;;20.49;79.28
23339;BME280;11841;49.368;20.962;2023-07-31T08:34:51;95499.19;;;20.54;78.93
23339;BME280;11841;49.368;20.962;2023-07-31T08:37:38;95509.69;;;20.56;78.60
23339;BME280;11841;49.368;20.962;2023-07-31T08:40:23;95511.56;;;20.55;78.80
23339;BME280;11841;49.368;20.962;2023-07-31T08:43:09;95513.19;;;20.56;77.75
23339;BME280;11841;49.368;20.962;2023-07-31T08:45:54;95519.09;;;20.58;77.67
23339;BME280;11841;49.368;20.962;2023-07-31T08:48:43;95514.78;;;20.57;77.94
23339;BME280;11841;49.368;20.962;2023-07-31T08:51:29;95514.78;;;20.57;78.88
23339;BME280;11841;49.368;20.962;2023-07-31T08:54:15;95519.59;;;20.60;79.92
23339;BME280;11841;49.368;20.962;2023-07-31T08:57:00;95520.94;;;20.63;78.97
23339;BME280;11841;49.368;20.962;2023-07-31T08:59:46;95528.19;;;20.62;77.43
23339;BME280;11841;49.368;20.962;2023-07-31T09:02:38;95516.41;;;20.58;76.88
23339;BME280;11841;49.368;20.962;2023-07-31T09:05:26;95528.25;;;20.57;77.34
23339;BME280;11841;49.368;20.962;2023-07-31T09:08:14;95524.97;;;20.60;78.80
23339;BME280;11841;49.368;20.962;2023-07-31T09:11:01;95531.47;;;20.59;77.29
23339;BME280;11841;49.368;20.962;2023-07-31T09:13:48;95524.44;;;20.63;79.73
23339;BME280;11841;49.368;20.962;2023-07-31T09:16:34;95527.09;;;20.68;81.08
23339;BME280;11841;49.368;20.962;2023-07-31T09:19:27;95530.56;;;20.69;82.97
23339;BME280;11841;49.368;20.962;2023-07-31T09:22:13;95532.22;;;20.65;79.59
23339;BME280;11841;49.368;20.962;2023-07-31T09:25:13;95527.38;;;20.67;79.41
23339;BME280;11841;49.368;20.962;2023-07-31T09:28:03;95526.50;;;20.71;79.99
23339;BME280;11841;49.368;20.962;2023-07-31T09:30:50;95536.19;;;20.72;79.94
23339;BME280;11841;49.368;20.962;2023-07-31T09:33:54;95536.72;;;20.74;80.01
23339;BME280;11841;49.368;20.962;2023-07-31T09:36:48;95536.13;;;20.77;79.54
23339;BME280;11841;49.368;20.962;2023-07-31T09:39:45;95540.97;;;20.80;79.03
23339;BME280;11841;49.368;20.962;2023-07-31T09:42:31;95544.75;;;20.79;79.86
23339;BME280;11841;49.368;20.962;2023-07-31T09:45:18;95537.25;;;20.76;79.60
23339;BME280;11841;49.368;20.962;2023-07-31T09:48:13;95540.44;;;20.78;79.37
23339;BME280;11841;49.368;20.962;2023-07-31T09:51:04;95536.09;;;20.82;80.47
23339;BME280;11841;49.368;20.962;2023-07-31T09:53:52;95542.25;;;20.88;79.42
23339;BME280;11841;49.368;20.962;2023-07-31T09:56:45;95541.91;;;20.94;79.30
23339;BME280;11841;49.368;20.962;2023-07-31T09:59:31;95537.59;;;20.98;79.22
23339;BME280;11841;49.368;20.962;2023-07-31T10:02:21;95526.81;;;20.98;77.73
23339;BME280;11841;49.368;20.962;2023-07-31T10:05:07;95532.94;;;21.04;78.55
23339;BME280;11841;49.368;20.962;2023-07-31T10:07:56;95528.63;;;21.03;77.30
23339;BME280;11841;49.368;20.962;2023-07-31T10:10:45;95535.88;;;21.07;78.60
23339;BME280;11841;49.368;20.962;2023-07-31T10:13:31;95534.50;;;21.10;77.27
23339;BME280;11841;49.368;20.962;2023-07-31T10:16:17;95533.13;;;21.12;76.18
23339;BME280;11841;49.368;20.962;2023-07-31T10:19:03;95539.53;;;21.16;75.74
23339;BME280;11841;49.368;20.962;2023-07-31T10:21:49;95539.00;;;21.14;74.21
23339;BME280;11841;49.368;20.962;2023-07-31T10:24:36;95529.78;;;21.20;75.02
23339;BME280;11841;49.368;20.962;2023-07-31T10:27:21;95527.50;;;21.32;74.51
23339;BME280;11841;49.368;20.962;2023-07-31T10:30:17;95520.34;;;21.41;73.74
23339;BME280;11841;49.368;20.962;2023-07-31T10:33:05;95521.84;;;21.52;74.01
23339;BME280;11841;49.368;20.962;2023-07-31T10:36:14;95520.66;;;21.58;72.26
23339;BME280;11841;49.368;20.962;2023-07-31T10:39:03;95521.56;;;21.73;75.87
23339;BME280;11841;49.368;20.962;2023-07-31T10:41:49;95516.41;;;21.76;73.52
23339;BME280;11841;49.368;20.962;2023-07-31T10:44:34;95509.66;;;21.79;73.61
23339;BME280;11841;49.368;20.962;2023-07-31T10:47:20;95512.84;;;21.81;72.60
23339;BME280;11841;49.368;20.962;2023-07-31T10:50:18;95516.06;;;21.83;72.96
23339;BME280;11841;49.368;20.962;2023-07-31T10:53:22;95515.00;;;21.84;72.73
23339;BME280;11841;49.368;20.962;2023-07-31T10:56:09;95517.75;;;21.79;72.82
23339;BME280;11841;49.368;20.962;2023-07-31T10:59:01;95515.06;;;21.79;73.16
23339;BME280;11841;49.368;20.962;2023-07-31T11:01:53;95515.84;;;21.79;73.43
23339;BME280;11841;49.368;20.962;2023-07-31T11:04:41;95519.34;;;21.80;73.48
23339;BME280;11841;49.368;20.962;2023-07-31T11:07:46;95511.69;;;21.87;73.25
23339;BME280;11841;49.368;20.962;2023-07-31T11:10:31;95515.13;;;21.92;74.09
23339;BME280;11841;49.368;20.962;2023-07-31T11:13:17;95501.13;;;21.90;72.66
23339;BME280;11841;49.368;20.962;2023-07-31T11:16:03;95514.41;;;21.87;71.79
23339;BME280;11841;49.368;20.962;2023-07-31T11:18:50;95511.09;;;21.90;72.82
23339;BME280;11841;49.368;20.962;2023-07-31T11:21:36;95513.66;;;21.81;72.19
23339;BME280;11841;49.368;20.962;2023-07-31T11:24:22;95512.66;;;21.72;72.99
23339;BME280;11841;49.368;20.962;2023-07-31T11:27:07;95508.16;;;21.68;74.21
23339;BME280;11841;49.368;20.962;2023-07-31T11:29:53;95499.47;;;21.71;74.52
23339;BME280;11841;49.368;20.962;2023-07-31T11:32:44;95504.88;;;21.71;74.61
23339;BME280;11841;49.368;20.962;2023-07-31T11:35:34;95505.38;;;21.73;74.22
23339;BME280;11841;49.368;20.962;2023-07-31T11:38:29;95503.78;;;21.72;74.13
23339;BME280;11841;49.368;20.962;2023-07-31T11:41:16;95493.00;;;21.72;74.43
23339;BME280;11841;49.368;20.962;2023-07-31T11:44:02;95494.59;;;21.73;74.43
23339;BME280;11841;49.368;20.962;2023-07-31T11:47:07;95483.22;;;21.76;75.64
23339;BME280;11841;49.368;20.962;2023-07-31T11:49:53;95490.78;;;21.79;73.75
23339;BME280;11841;49.368;20.962;2023-07-31T11:52:43;95478.69;;;21.71;73.39
23339;BME280;11841;49.368;20.962;2023-07-31T11:55:30;95481.69;;;21.70;74.07
23339;BME280;11841;49.368;20.962;2023-07-31T11:58:16;95480.03;;;21.74;74.08
23339;BME280;11841;49.368;20.962;2023-07-31T12:01:02;95492.88;;;21.82;74.42
23339;BME280;11841;49.368;20.962;2023-07-31T12:03:49;95490.91;;;21.87;73.77
23339;BME280;11841;49.368;20.962;2023-07-31T12:06:36;95479.22;;;21.92;73.15
23339;BME280;11841;49.368;20.962;2023-07-31T12:09:22;95484.34;;;21.93;73.24
23339;BME280;11841;49.368;20.962;2023-07-31T12:12:08;95482.75;;;21.92;72.50
23339;BME280;11841;49.368;20.962;2023-07-31T12:14:54;95471.13;;;21.92;73.85
23339;BME280;11841;49.368;20.962;2023-07-31T12:17:40;95467.94;;;21.90;73.68
23339;BME280;11841;49.368;20.962;2023-07-31T12:20:25;95465.22;;;21.90;72.99
23339;BME280;11841;49.368;20.962;2023-07-31T12:23:19;95457.94;;;21.90;72.52
23339;BME280;11841;49.368;20.962;2023-07-31T12:26:14;95453.84;;;21.93;72.42
23339;BME280;11841;49.368;20.962;2023-07-31T12:28:59;95459.75;;;21.95;72.43
23339;BME280;11841;49.368;20.962;2023-07-31T12:31:45;95459.16;;;21.98;72.10
23339;BME280;11841;49.368;20.962;2023-07-31T12:34:30;95454.69;;;22.07;74.11
23339;BME280;11841;49.368;20.962;2023-07-31T12:37:16;95461.59;;;22.13;72.21
23339;BME280;11841;49.368;20.962;2023-07-31T12:40:01;95457.22;;;22.17;73.31
23339;BME280;11841;49.368;20.962;2023-07-31T12:42:53;95460.06;;;22.25;74.84
23339;BME280;11841;49.368;20.962;2023-07-31T12:45:38;95448.88;;;22.32;73.26
23339;BME280;11841;49.368;20.962;2023-07-31T12:48:24;95445.09;;;22.33;71.24
23339;BME280;11841;49.368;20.962;2023-07-31T12:51:09;95448.09;;;22.31;70.16
23339;BME280;11841;49.368;20.962;2023-07-31T12:53:55;95439.69;;;22.33;70.38
23339;BME280;11841;49.368;20.962;2023-07-31T12:56:40;95441.72;;;22.41;70.81
23339;BME280;11841;49.368;20.962;2023-07-31T12:59:26;95441.22;;;22.52;71.37
23339;BME280;11841;49.368;20.962;2023-07-31T13:02:11;95432.75;;;22.59;70.39
23339;BME280;11841;49.368;20.962;2023-07-31T13:04:57;95438.75;;;22.56;69.05
23339;BME280;11841;49.368;20.962;2023-07-31T13:07:42;95431.06;;;22.63;71.39
23339;BME280;11841;49.368;20.962;2023-07-31T13:10:28;95427.16;;;22.69;69.50
23339;BME280;11841;49.368;20.962;2023-07-31T13:13:14;95418.19;;;22.73;68.73
23339;BME280;11841;49.368;20.962;2023-07-31T13:15:59;95414.56;;;22.78;67.91
23339;BME280;11841;49.368;20.962;2023-07-31T13:18:44;95431.88;;;22.77;67.88
23339;BME280;11841;49.368;20.962;2023-07-31T13:21:30;95422.56;;;22.83;67.50
23339;BME280;11841;49.368;20.962;2023-07-31T13:24:15;95429.41;;;22.81;66.99
23339;BME280;11841;49.368;20.962;2023-07-31T13:27:01;95426.28;;;22.87;67.21
23339;BME280;11841;49.368;20.962;2023-07-31T13:29:50;95421.75;;;22.96;67.53
23339;BME280;11841;49.368;20.962;2023-07-31T13:32:35;95416.75;;;23.03;67.13
23339;BME280;11841;49.368;20.962;2023-07-31T13:35:24;95420.97;;;23.09;68.48
23339;BME280;11841;49.368;20.962;2023-07-31T13:38:09;95416.53;;;23.13;67.97
23339;BME280;11841;49.368;20.962;2023-07-31T13:40:55;95412.75;;;23.14;66.46
23339;BME280;11841;49.368;20.962;2023-07-31T13:43:41;95406.94;;;23.07;66.40
23339;BME280;11841;49.368;20.962;2023-07-31T13:46:27;95399.03;;;23.11;67.09
23339;BME280;11841;49.368;20.962;2023-07-31T13:49:12;95399.81;;;23.11;65.99
23339;BME280;11841;49.368;20.962;2023-07-31T13:51:57;95400.81;;;23.15;65.35
23339;BME280;11841;49.368;20.962;2023-07-31T13:54:43;95407.56;;;23.31;64.47
23339;BME280;11841;49.368;20.962;2023-07-31T13:57:28;95394.59;;;23.42;63.96
23339;BME280;11841;49.368;20.962;2023-07-31T14:00:14;95395.16;;;23.52;64.99
23339;BME280;11841;49.368;20.962;2023-07-31T14:02:59;95392.72;;;23.64;65.47
23339;BME280;11841;49.368;20.962;2023-07-31T14:05:45;95388.19;;;23.73;64.13
23339;BME280;11841;49.368;20.962;2023-07-31T14:08:30;95394.09;;;23.75;62.17
23339;BME280;11841;49.368;20.962;2023-07-31T14:11:16;95384.06;;;23.76;61.79
23339;BME280;11841;49.368;20.962;2023-07-31T14:14:02;95389.78;;;23.74;60.99
23339;BME280;11841;49.368;20.962;2023-07-31T14:16:48;95386.69;;;23.67;60.83
23339;BME280;11841;49.368;20.962;2023-07-31T14:19:33;95386.22;;;23.65;63.24
23339;BME280;11841;49.368;20.962;2023-07-31T14:22:29;95378.09;;;23.65;62.29
23339;BME280;11841;49.368;20.962;2023-07-31T14:25:14;95382.91;;;23.68;60.88
23339;BME280;11841;49.368;20.962;2023-07-31T14:28:00;95379.94;;;23.78;62.66
23339;BME280;11841;49.368;20.962;2023-07-31T14:30:45;95381.16;;;23.94;61.86
23339;BME280;11841;49.368;20.962;2023-07-31T14:33:31;95381.31;;;24.12;60.42
23339;BME280;11841;49.368;20.962;2023-07-31T14:36:16;95372.75;;;24.18;60.72
23339;BME280;11841;49.368;20.962;2023-07-31T14:39:01;95369.00;;;24.28;60.81
23339;BME280;11841;49.368;20.962;2023-07-31T14:41:47;95366.00;;;24.38;60.35
23339;BME280;11841;49.368;20.962;2023-07-31T14:44:33;95362.84;;;24.44;58.93